Bavaria

Go HERE for most recent data if this page is not up to date.

Jump to table bottom
Date Time Temp F RH % AVG Wind Max Wind Wind Dir 24 Snow Depth
*03/18/19 10 29.5 44 0 0 N - 0 -0.1 151.3
*03/18/19 09 30.4 43 0 0 N - 0 0.0 84.7
*03/18/19 08 18.0 68 0 0 N - 0 0.1 85.1
*03/18/19 07 16.9 67 0 0 N - 0 0.1 85.1
*03/18/19 06 16.7 72 0 0 N - 0 0.1 85.3
*03/18/19 05 17.8 67 0 0 N - 0 0.0 85.5
*03/18/19 04 17.7 68 0 0 N - 0 0.0 85.3
*03/18/19 03 16.8 74 0 0 N - 0 0.2 85.2
*03/18/19 02 18.5 62 0 0 N - 0 0.2 85.1
*03/18/19 01 19.1 63 0 0 N - 0 0.2 85.2
*03/18/19 00 20.1 60 0 0 N - 0 0.0 85.2
*03/17/19 23 22.1 58 0 0 N - 0 0.1 85.3
*03/17/19 22 21.8 57 0 0 N - 0 0.1 85.3
*03/17/19 21 22.1 49 0 0 N - 0 0.2 85.3
*03/17/19 20 22.6 46 0 0 N - 0 0.1 85.0
*03/17/19 19 24.9 36 0 0 N - 0 0.0 85.1
*03/17/19 18 30.3 34 0 0 N - 0 -0.0 85.2
*03/17/19 17 25.6 46 0 0 N - 0 -0.0 85.0
*03/17/19 16 26.7 44 0 0 N - 0 -0.0 85.1
*03/17/19 15 26.4 44 0 0 N - 0 -0.2 84.9
*03/17/19 14 28.9 37 0 0 N - 0 -0.3 85.0
*03/17/19 13 29.5 35 0 0 N - 0 -0.5 84.7
*03/17/19 12 29.9 35 0 0 N - 0 -0.4 84.7
*03/17/19 11 26.7 47 0 0 N - 0 -0.2 84.5
*03/17/19 10 23.8 48 0 0 N - 0 0.0 85.2
*03/17/19 09 22.2 52 0 0 N - 0 0.1 85.2
*03/17/19 08 20.7 49 0 0 N - 0 0.2 85.5
*03/17/19 07 20.3 53 0 0 N - 0 0.1 85.2
*03/17/19 06 21.1 46 0 0 N - 0 0.2 85.6
*03/17/19 05 19.6 51 0 0 N - 0 0.1 85.3
*03/17/19 04 20.3 48 0 0 N - 0 0.2 85.3
*03/17/19 03 22.1 43 0 0 N - 0 0.1 85.6
*03/17/19 02 22.5 41 0 0 N - 0 0.2 85.3
*03/17/19 01 22.1 41 0 0 N - 0 0.2 85.5
*03/17/19 00 21.6 41 0 0 N - 0 0.2 85.3
.